createdAt,value
2022-09-23T00:00:23.314Z,15.90
2022-09-23T00:02:51.955Z,16.00
2022-09-23T00:05:18.705Z,16.00
2022-09-23T00:07:45.424Z,16.00
2022-09-23T00:10:12.121Z,16.00
2022-09-23T00:12:40.640Z,16.00
2022-09-23T00:15:07.808Z,15.90
2022-09-23T00:17:34.531Z,16.00
2022-09-23T00:20:01.538Z,16.00
2022-09-23T00:22:31.330Z,16.00
2022-09-23T00:24:58.084Z,16.00
2022-09-23T00:27:24.785Z,16.00
2022-09-23T00:29:51.511Z,15.90
2022-09-23T00:32:18.260Z,16.00
2022-09-23T00:34:45.013Z,15.90
2022-09-23T00:37:11.747Z,16.00
2022-09-23T00:39:38.463Z,15.90
2022-09-23T00:42:05.716Z,15.90
2022-09-23T00:44:40.378Z,15.90
2022-09-23T00:47:11.255Z,15.90
2022-09-23T00:49:38.006Z,15.90
2022-09-23T00:52:09.483Z,15.90
2022-09-23T00:54:36.185Z,15.90
2022-09-23T00:57:03.862Z,15.90
2022-09-23T00:59:30.922Z,15.80
2022-09-23T01:01:57.920Z,15.80
2022-09-23T01:04:24.781Z,15.80
2022-09-23T01:06:51.518Z,15.70
2022-09-23T01:09:18.236Z,15.70
2022-09-23T01:12:00.201Z,15.70
2022-09-23T01:14:46.163Z,15.70
2022-09-23T01:17:16.637Z,15.60
2022-09-23T01:19:49.652Z,15.60
2022-09-23T01:22:24.893Z,15.60
2022-09-23T01:25:00.755Z,15.60
2022-09-23T01:27:50.870Z,15.60
2022-09-23T01:30:36.307Z,15.60
2022-09-23T01:33:04.829Z,15.50
2022-09-23T01:35:31.529Z,15.50
2022-09-23T01:38:20.848Z,15.60
2022-09-23T01:40:56.953Z,15.50
2022-09-23T01:43:25.475Z,15.50
2022-09-23T01:45:56.460Z,15.50
2022-09-23T01:48:24.221Z,15.60
2022-09-23T01:50:58.990Z,15.60
2022-09-23T01:53:25.730Z,15.60
2022-09-23T01:55:53.157Z,15.60
2022-09-23T01:58:49.363Z,15.60
2022-09-23T02:01:17.507Z,15.60
2022-09-23T02:03:47.043Z,15.60
2022-09-23T02:06:19.396Z,15.60
2022-09-23T02:08:47.538Z,15.60
2022-09-23T02:11:15.330Z,15.70
2022-09-23T02:14:11.477Z,15.70
2022-09-23T02:16:51.235Z,15.70
2022-09-23T02:19:28.091Z,15.70
2022-09-23T02:22:01.257Z,15.70
2022-09-23T02:24:29.214Z,15.70
2022-09-23T02:26:58.755Z,15.70
2022-09-23T02:29:28.310Z,15.60
2022-09-23T02:32:13.612Z,15.60
2022-09-23T02:34:43.437Z,15.60
2022-09-23T02:37:25.075Z,15.60
2022-09-23T02:40:02.899Z,15.60
2022-09-23T02:42:38.227Z,15.60
2022-09-23T02:45:05.469Z,15.60
2022-09-23T02:47:32.159Z,15.60
2022-09-23T02:49:58.952Z,15.50
2022-09-23T02:52:25.826Z,15.60
2022-09-23T02:54:52.576Z,15.60
2022-09-23T02:57:19.295Z,15.60
2022-09-23T02:59:46.735Z,15.60
2022-09-23T03:02:21.706Z,15.60
2022-09-23T03:05:06.464Z,15.50
2022-09-23T03:07:33.341Z,15.60
2022-09-23T03:10:12.425Z,15.50
2022-09-23T03:12:40.736Z,15.60
2022-09-23T03:15:22.904Z,15.60
2022-09-23T03:18:15.839Z,15.60
2022-09-23T03:20:59.123Z,15.60
2022-09-23T03:23:38.823Z,15.60
2022-09-23T03:26:08.710Z,15.60
2022-09-23T03:28:36.178Z,15.50
2022-09-23T03:31:02.937Z,15.50
2022-09-23T03:33:29.733Z,15.50
2022-09-23T03:36:25.381Z,15.50
2022-09-23T03:38:54.207Z,15.50
2022-09-23T03:41:28.982Z,15.50
2022-09-23T03:43:58.500Z,15.50
2022-09-23T03:46:30.179Z,15.50
2022-09-23T03:48:58.635Z,15.50
2022-09-23T03:51:25.623Z,15.50
2022-09-23T03:53:52.357Z,15.50
2022-09-23T03:56:19.116Z,15.50
2022-09-23T03:58:46.529Z,15.50
2022-09-23T04:01:14.811Z,15.50
2022-09-23T04:03:41.848Z,15.60
2022-09-23T04:06:08.585Z,15.50
2022-09-23T04:08:35.346Z,15.60
2022-09-23T04:11:02.357Z,15.60
2022-09-23T04:13:29.427Z,15.60
2022-09-23T04:15:56.260Z,15.60
2022-09-23T04:18:23.351Z,15.50
2022-09-23T04:20:50.060Z,15.60
2022-09-23T04:23:16.800Z,15.50
2022-09-23T04:25:47.028Z,15.50
2022-09-23T04:28:13.937Z,15.60
2022-09-23T04:30:44.364Z,15.60
2022-09-23T04:33:11.208Z,15.50
2022-09-23T04:35:40.336Z,15.60
2022-09-23T04:38:07.319Z,15.50
2022-09-23T04:40:34.344Z,15.60
2022-09-23T04:43:01.157Z,15.50
2022-09-23T04:45:27.897Z,15.60
2022-09-23T04:47:55.891Z,15.60
2022-09-23T04:50:22.612Z,15.60
2022-09-23T04:52:49.347Z,15.60
2022-09-23T04:55:16.146Z,15.60
2022-09-23T04:57:42.836Z,15.60
2022-09-23T05:00:10.293Z,15.60
2022-09-23T05:02:41.955Z,15.60
2022-09-23T05:05:08.782Z,15.70
2022-09-23T05:07:36.198Z,15.70
2022-09-23T05:10:03.005Z,15.60
2022-09-23T05:12:29.751Z,15.70
2022-09-23T05:14:56.626Z,15.70
2022-09-23T05:17:23.994Z,15.70
2022-09-23T05:19:50.774Z,15.70
2022-09-23T05:22:17.581Z,15.80
2022-09-23T05:24:44.428Z,15.80
2022-09-23T05:27:11.145Z,15.80
2022-09-23T05:29:39.221Z,15.80
2022-09-23T05:32:06.066Z,15.80
2022-09-23T05:34:41.031Z,15.80
2022-09-23T05:37:07.797Z,15.80
2022-09-23T05:39:34.535Z,15.80
2022-09-23T05:42:01.353Z,15.90
2022-09-23T05:44:28.178Z,15.90
2022-09-23T05:46:57.067Z,15.90
2022-09-23T05:49:37.721Z,15.90
2022-09-23T05:52:09.559Z,15.90
2022-09-23T05:54:36.350Z,15.90
2022-09-23T05:57:05.018Z,15.90
2022-09-23T05:59:33.097Z,15.90
2022-09-23T06:02:01.297Z,15.90
2022-09-23T06:04:28.292Z,15.90
2022-09-23T06:06:55.497Z,15.90
2022-09-23T06:09:22.255Z,15.90
2022-09-23T06:11:50.780Z,15.90
2022-09-23T06:14:17.558Z,15.90
2022-09-23T06:16:44.899Z,15.80
2022-09-23T06:19:11.912Z,15.80
2022-09-23T06:21:39.041Z,15.80
2022-09-23T06:24:06.810Z,15.80
2022-09-23T06:26:34.873Z,15.80
2022-09-23T06:31:43.885Z,15.80
2022-09-23T06:34:13.133Z,15.80
2022-09-23T06:36:45.479Z,15.80
2022-09-23T06:39:13.904Z,15.80
2022-09-23T06:41:40.617Z,15.80
2022-09-23T06:44:12.091Z,15.80
2022-09-23T06:46:38.957Z,15.80
2022-09-23T06:49:05.751Z,15.90
2022-09-23T06:51:32.495Z,15.90
2022-09-23T06:53:59.219Z,15.90
2022-09-23T06:56:26.091Z,15.90
2022-09-23T06:58:52.814Z,15.90
2022-09-23T07:01:19.842Z,15.90
2022-09-23T07:03:47.500Z,15.90
2022-09-23T07:06:14.362Z,16.00
2022-09-23T07:08:42.715Z,15.90
2022-09-23T07:11:13.235Z,16.00
2022-09-23T07:13:41.159Z,16.10
2022-09-23T07:16:08.204Z,16.10
2022-09-23T07:18:37.380Z,16.10
2022-09-23T07:21:05.480Z,16.20
2022-09-23T07:23:33.561Z,16.20
2022-09-23T07:26:00.548Z,16.30
2022-09-23T07:28:28.996Z,16.30
2022-09-23T07:31:00.229Z,16.40
2022-09-23T07:33:33.334Z,16.40
2022-09-23T07:36:06.926Z,16.50
2022-09-23T07:38:34.312Z,16.50
2022-09-23T07:41:05.347Z,16.50
2022-09-23T07:43:32.440Z,16.50
2022-09-23T07:45:59.994Z,16.50
2022-09-23T07:48:29.645Z,16.50
2022-09-23T07:51:00.878Z,16.50
2022-09-23T07:53:27.697Z,16.50
2022-09-23T07:55:54.869Z,16.40
2022-09-23T07:58:21.846Z,16.40
2022-09-23T08:00:50.750Z,16.40
2022-09-23T08:03:17.998Z,16.40
2022-09-23T08:05:45.934Z,16.40
2022-09-23T08:08:14.159Z,16.40
2022-09-23T08:10:40.888Z,16.40
2022-09-23T08:13:07.739Z,16.40
2022-09-23T08:15:34.794Z,16.40
2022-09-23T08:18:01.855Z,16.40
2022-09-23T08:20:47.973Z,16.40
2022-09-23T08:23:15.527Z,16.40
2022-09-23T08:25:44.669Z,16.40
2022-09-23T08:28:14.230Z,16.50
2022-09-23T08:30:41.063Z,16.50
2022-09-23T08:33:07.924Z,16.50
2022-09-23T08:35:34.700Z,16.70
2022-09-23T08:38:01.576Z,16.80
2022-09-23T08:40:28.325Z,16.90
2022-09-23T08:42:55.082Z,17.00
2022-09-23T08:45:23.475Z,17.10
2022-09-23T08:47:53.307Z,17.10
2022-09-23T08:50:24.069Z,17.20
2022-09-23T08:53:01.350Z,17.20
2022-09-23T08:55:30.067Z,17.30
2022-09-23T08:58:23.317Z,17.30
2022-09-23T09:00:44.819Z,17.40
2022-09-23T09:03:18.565Z,17.40
2022-09-23T09:05:53.741Z,17.40
2022-09-23T09:08:24.206Z,17.40
2022-09-23T09:10:52.919Z,17.40
2022-09-23T09:13:23.346Z,17.40
2022-09-23T09:15:55.134Z,17.40
2022-09-23T09:18:22.770Z,17.40
2022-09-23T09:21:09.346Z,17.50
2022-09-23T09:23:36.386Z,17.50
2022-09-23T09:26:03.515Z,17.50
2022-09-23T09:28:34.013Z,17.40
2022-09-23T09:31:01.349Z,17.30
2022-09-23T09:33:32.337Z,17.20
2022-09-23T09:36:08.930Z,17.20
2022-09-23T09:38:36.458Z,17.10
2022-09-23T09:41:14.089Z,17.00
2022-09-23T09:43:44.209Z,17.00
2022-09-23T09:46:30.086Z,17.00
2022-09-23T09:48:59.863Z,17.00
2022-09-23T09:51:37.246Z,17.00
2022-09-23T09:54:17.726Z,17.10
2022-09-23T09:56:44.703Z,17.20
2022-09-23T09:59:12.080Z,17.30
2022-09-23T10:01:38.869Z,17.40
2022-09-23T10:04:06.503Z,17.40
2022-09-23T10:06:34.196Z,17.40
2022-09-23T10:09:01.581Z,17.40
2022-09-23T10:11:28.648Z,17.50
2022-09-23T10:14:01.383Z,17.60
2022-09-23T10:16:28.557Z,17.60
2022-09-23T10:18:57.050Z,17.60
2022-09-23T10:21:27.782Z,17.70
2022-09-23T10:23:55.606Z,17.70
2022-09-23T10:26:26.106Z,17.70
2022-09-23T10:28:55.535Z,17.80
2022-09-23T10:31:26.305Z,17.80
2022-09-23T10:34:03.085Z,17.80
2022-09-23T10:36:30.785Z,17.80
2022-09-23T10:39:27.570Z,17.80
2022-09-23T10:42:12.969Z,17.80
2022-09-23T10:45:17.651Z,18.00
2022-09-23T10:47:59.615Z,18.20
2022-09-23T10:50:29.615Z,18.50
2022-09-23T10:52:59.426Z,18.70
2022-09-23T10:55:44.580Z,18.90
2022-09-23T10:58:17.672Z,19.10
2022-09-23T11:01:02.956Z,19.40
2022-09-23T11:03:32.103Z,19.50
2022-09-23T11:06:05.062Z,19.50
2022-09-23T11:08:51.000Z,19.50
2022-09-23T11:11:23.771Z,19.40
2022-09-23T11:14:01.107Z,19.40
2022-09-23T11:16:38.995Z,19.30
2022-09-23T11:19:18.321Z,19.40
2022-09-23T11:21:48.090Z,19.40
2022-09-23T11:24:15.970Z,19.50
2022-09-23T11:27:05.697Z,19.60
2022-09-23T11:29:47.505Z,19.70
2022-09-23T11:32:17.301Z,19.90
2022-09-23T11:35:06.367Z,19.90
2022-09-23T11:37:35.093Z,20.00
2022-09-23T11:40:03.492Z,20.10
2022-09-23T11:42:34.440Z,20.20
2022-09-23T11:45:02.472Z,20.20
2022-09-23T11:47:39.793Z,20.40
2022-09-23T11:50:14.602Z,20.40
2022-09-23T11:52:43.681Z,20.50
2022-09-23T11:55:22.083Z,20.50
2022-09-23T11:58:22.132Z,20.60
2022-09-23T12:01:00.534Z,20.60
2022-09-23T12:03:40.312Z,20.70
2022-09-23T12:06:12.612Z,20.70
2022-09-23T12:08:39.386Z,20.80
2022-09-23T12:11:24.343Z,20.90
2022-09-23T12:14:10.013Z,21.10
2022-09-23T12:16:36.965Z,21.50
2022-09-23T12:19:17.100Z,22.00
2022-09-23T12:22:00.744Z,22.30
2022-09-23T12:24:46.322Z,22.60
2022-09-23T12:27:21.498Z,22.70
2022-09-23T12:29:49.139Z,22.70
2022-09-23T12:32:19.041Z,22.60
2022-09-23T12:34:49.182Z,22.50
2022-09-23T12:37:39.291Z,22.60
2022-09-23T12:40:09.781Z,22.60
2022-09-23T12:42:40.282Z,22.40
2022-09-23T12:45:37.288Z,22.20
2022-09-23T12:48:04.885Z,22.00
2022-09-23T12:50:51.029Z,21.70
2022-09-23T12:53:32.969Z,21.40
2022-09-23T12:56:00.104Z,21.30
2022-09-23T12:58:37.248Z,21.20
2022-09-23T13:01:17.290Z,21.20
2022-09-23T13:04:05.903Z,21.40
2022-09-23T13:06:56.535Z,21.70
2022-09-23T13:09:26.990Z,22.50
2022-09-23T13:11:53.772Z,24.20
2022-09-23T13:14:25.272Z,24.70
2022-09-23T13:16:54.307Z,24.60
2022-09-23T13:19:27.649Z,24.30
2022-09-23T13:21:54.389Z,23.90
2022-09-23T13:24:25.016Z,23.50
2022-09-23T13:27:10.529Z,23.30
2022-09-23T13:29:42.261Z,23.10
2022-09-23T13:32:17.794Z,23.10
2022-09-23T13:35:03.371Z,23.10
2022-09-23T13:37:30.066Z,23.00
2022-09-23T13:40:26.689Z,22.80
2022-09-23T13:43:00.559Z,22.70
2022-09-23T13:45:27.702Z,22.60
2022-09-23T13:47:55.332Z,22.80
2022-09-23T13:50:22.639Z,23.30
2022-09-23T13:52:52.894Z,23.30
2022-09-23T13:55:25.428Z,23.10
2022-09-23T13:58:11.040Z,22.90
2022-09-23T14:00:37.969Z,22.60
2022-09-23T14:03:23.044Z,22.40
2022-09-23T14:05:49.830Z,22.20
2022-09-23T14:08:16.653Z,22.10
2022-09-23T14:10:46.014Z,22.20
2022-09-23T14:13:17.025Z,22.20
2022-09-23T14:15:44.785Z,22.20
2022-09-23T14:18:13.273Z,22.20
2022-09-23T14:20:47.177Z,22.20
2022-09-23T14:23:16.980Z,22.30
2022-09-23T14:25:44.583Z,22.50
2022-09-23T14:28:15.308Z,22.70
2022-09-23T14:30:44.661Z,23.10
2022-09-23T14:33:13.400Z,23.40
2022-09-23T14:35:41.672Z,23.80
2022-09-23T14:38:26.861Z,25.00
2022-09-23T14:40:54.649Z,27.10
2022-09-23T14:43:24.598Z,28.70
2022-09-23T14:45:55.826Z,29.60
2022-09-23T14:48:22.665Z,29.90
2022-09-23T14:50:50.457Z,30.20
2022-09-23T14:53:18.459Z,30.70
2022-09-23T14:55:45.590Z,31.30
2022-09-23T14:58:15.339Z,32.10
2022-09-23T15:00:51.769Z,32.20
2022-09-23T15:03:18.606Z,31.80
2022-09-23T15:05:46.249Z,31.20
2022-09-23T15:08:14.250Z,30.50
2022-09-23T15:10:41.078Z,29.70
2022-09-23T15:13:14.685Z,28.90
2022-09-23T15:15:41.529Z,28.10
2022-09-23T15:18:13.663Z,27.60
2022-09-23T15:20:40.576Z,28.10
2022-09-23T15:23:28.365Z,28.30
2022-09-23T15:25:55.190Z,28.10
2022-09-23T15:28:24.732Z,27.50
2022-09-23T15:30:51.401Z,27.80
2022-09-23T15:33:18.504Z,28.40
2022-09-23T15:35:47.384Z,28.60
2022-09-23T15:38:14.193Z,28.50
2022-09-23T15:40:41.382Z,28.80
2022-09-23T15:43:20.703Z,29.20
2022-09-23T15:45:55.841Z,29.40
2022-09-23T15:48:35.771Z,28.90
2022-09-23T15:51:03.086Z,28.30
2022-09-23T15:53:29.986Z,27.60
2022-09-23T15:55:58.505Z,27.00
2022-09-23T15:58:26.083Z,26.40
2022-09-23T16:00:56.401Z,26.10
2022-09-23T16:03:28.298Z,26.60
2022-09-23T16:06:01.009Z,27.60
2022-09-23T16:08:28.306Z,28.60
2022-09-23T16:10:55.167Z,29.60
2022-09-23T16:13:21.912Z,30.40
2022-09-23T16:15:48.692Z,31.10
2022-09-23T16:18:15.517Z,31.60
2022-09-23T16:20:42.736Z,32.00
2022-09-23T16:23:14.101Z,31.90
2022-09-23T16:25:40.801Z,31.60
2022-09-23T16:28:07.728Z,30.90
2022-09-23T16:30:34.553Z,30.60
2022-09-23T16:33:01.876Z,30.40
2022-09-23T16:35:29.152Z,29.70
2022-09-23T16:37:56.728Z,28.80
2022-09-23T16:40:23.687Z,27.70
2022-09-23T16:42:52.026Z,26.70
2022-09-23T16:45:19.669Z,25.80
2022-09-23T16:47:47.133Z,25.00
2022-09-23T16:50:14.294Z,24.30
2022-09-23T16:52:41.758Z,23.70
2022-09-23T16:55:11.694Z,23.10
2022-09-23T16:57:38.455Z,22.60
2022-09-23T17:00:24.696Z,22.20
2022-09-23T17:03:09.949Z,21.80
2022-09-23T17:05:36.679Z,21.40
2022-09-23T17:08:04.031Z,21.10
2022-09-23T17:10:30.760Z,20.80
2022-09-23T17:12:57.976Z,20.50
2022-09-23T17:15:24.694Z,20.30
2022-09-23T17:17:51.434Z,20.10
2022-09-23T17:20:18.515Z,19.90
2022-09-23T17:22:45.256Z,19.70
2022-09-23T17:25:12.010Z,19.50
2022-09-23T17:27:38.952Z,19.40
2022-09-23T17:30:07.083Z,19.30
2022-09-23T17:32:33.864Z,19.20
2022-09-23T17:35:04.551Z,19.10
2022-09-23T17:37:32.205Z,18.90
2022-09-23T17:39:59.591Z,18.80
2022-09-23T17:42:27.757Z,18.70
2022-09-23T17:44:59.260Z,18.60
2022-09-23T17:47:25.995Z,18.50
2022-09-23T17:49:54.429Z,18.40
2022-09-23T17:52:21.146Z,18.30
2022-09-23T17:54:48.013Z,18.20
2022-09-23T17:57:14.803Z,18.00
2022-09-23T17:59:43.528Z,18.00
2022-09-23T18:02:14.900Z,17.90
2022-09-23T18:04:42.409Z,17.80
2022-09-23T18:07:09.111Z,17.70
2022-09-23T18:09:35.858Z,17.60
2022-09-23T18:12:02.579Z,17.50
2022-09-23T18:14:29.326Z,17.40
2022-09-23T18:16:56.054Z,17.30
2022-09-23T18:19:23.224Z,17.30
2022-09-23T18:21:54.516Z,17.30
2022-09-23T18:24:32.296Z,17.20
2022-09-23T18:27:00.485Z,17.10
2022-09-23T18:29:27.272Z,17.10
2022-09-23T18:31:54.065Z,17.10
2022-09-23T18:34:21.096Z,17.00
2022-09-23T18:36:47.864Z,17.00
2022-09-23T18:39:14.631Z,17.00
2022-09-23T18:41:41.379Z,17.00
2022-09-23T18:44:08.288Z,16.90
2022-09-23T18:46:35.148Z,16.90
2022-09-23T18:49:20.690Z,16.80
2022-09-23T18:51:51.216Z,16.80
2022-09-23T18:54:18.361Z,16.80
2022-09-23T18:56:46.357Z,16.80
2022-09-23T18:59:17.641Z,16.80
2022-09-23T19:01:45.746Z,16.80
2022-09-23T19:04:13.911Z,16.80
2022-09-23T19:06:40.690Z,16.80
2022-09-23T19:09:07.481Z,16.70
2022-09-23T19:11:36.572Z,16.70
2022-09-23T19:14:07.384Z,16.60
2022-09-23T19:16:34.860Z,16.60
2022-09-23T19:19:02.070Z,16.60
2022-09-23T19:21:29.113Z,16.70
2022-09-23T19:23:56.821Z,16.70
2022-09-23T19:26:25.543Z,16.70
2022-09-23T19:28:53.435Z,16.70
2022-09-23T19:31:22.311Z,16.80
2022-09-23T19:33:56.714Z,16.80
2022-09-23T19:36:26.701Z,16.80
2022-09-23T19:38:54.343Z,16.80
2022-09-23T19:41:21.063Z,16.80
2022-09-23T19:43:48.909Z,16.80
2022-09-23T19:46:16.167Z,16.80
2022-09-23T19:48:43.007Z,16.80
2022-09-23T19:51:09.857Z,16.80
2022-09-23T19:53:38.182Z,16.90
2022-09-23T19:56:05.367Z,16.90
2022-09-23T19:58:33.320Z,16.90
2022-09-23T20:01:00.320Z,16.90
2022-09-23T20:03:27.294Z,16.90
2022-09-23T20:05:54.864Z,16.80
2022-09-23T20:08:21.702Z,16.80
2022-09-23T20:10:50.651Z,16.80
2022-09-23T20:13:17.993Z,16.70
2022-09-23T20:15:45.155Z,16.70
2022-09-23T20:18:12.247Z,16.70
2022-09-23T20:20:39.207Z,16.70
2022-09-23T20:23:06.554Z,16.60
2022-09-23T20:25:53.366Z,16.60
2022-09-23T20:28:21.275Z,16.50
2022-09-23T20:30:49.339Z,16.50
2022-09-23T20:33:16.210Z,16.40
2022-09-23T20:35:44.024Z,16.40
2022-09-23T20:38:10.781Z,16.30
2022-09-23T20:40:38.562Z,16.30
2022-09-23T20:43:05.371Z,16.20
2022-09-23T20:45:32.192Z,16.20
2022-09-23T20:48:03.297Z,16.10
2022-09-23T20:50:30.245Z,16.10
2022-09-23T20:52:57.604Z,16.00
2022-09-23T20:55:24.427Z,16.00
2022-09-23T20:57:51.281Z,16.00
2022-09-23T21:00:18.469Z,16.00
2022-09-23T21:02:45.299Z,16.00
2022-09-23T21:05:12.318Z,16.00
2022-09-23T21:07:39.051Z,16.00
2022-09-23T21:10:07.356Z,16.00
2022-09-23T21:12:35.178Z,16.00
2022-09-23T21:15:02.369Z,16.00
2022-09-23T21:17:29.230Z,16.00
2022-09-23T21:19:55.997Z,15.90
2022-09-23T21:22:22.761Z,15.90
2022-09-23T21:25:26.838Z,15.90
2022-09-23T21:27:37.161Z,15.90
2022-09-23T21:30:04.344Z,15.80
2022-09-23T21:32:31.270Z,15.80
2022-09-23T21:35:02.027Z,15.80
2022-09-23T21:37:28.919Z,15.70
2022-09-23T21:40:14.177Z,15.70
2022-09-23T21:42:42.139Z,15.60
2022-09-23T21:45:10.898Z,15.60
2022-09-23T21:47:37.788Z,15.60
2022-09-23T21:50:05.061Z,15.60
2022-09-23T21:52:31.867Z,15.60
2022-09-23T21:55:00.932Z,15.60
2022-09-23T21:57:30.233Z,15.50
2022-09-23T21:59:58.604Z,15.50
2022-09-23T22:02:25.679Z,15.50
2022-09-23T22:04:52.452Z,15.40
2022-09-23T22:07:20.128Z,15.40
2022-09-23T22:09:46.984Z,15.30
2022-09-23T22:12:13.727Z,15.20
2022-09-23T22:14:40.688Z,15.20
2022-09-23T22:17:07.888Z,15.10
2022-09-23T22:19:35.874Z,15.10
2022-09-23T22:22:05.563Z,15.00
2022-09-23T22:24:32.291Z,15.00
2022-09-23T22:27:01.325Z,15.00
2022-09-23T22:29:48.863Z,14.90
2022-09-23T22:32:34.308Z,14.90
2022-09-23T22:35:04.935Z,14.90
2022-09-23T22:37:34.869Z,14.80
2022-09-23T22:40:01.988Z,14.80
2022-09-23T22:42:29.112Z,14.80
2022-09-23T22:44:55.885Z,14.70
2022-09-23T22:47:23.849Z,14.70
2022-09-23T22:49:54.674Z,14.60
2022-09-23T22:52:24.738Z,14.60
2022-09-23T22:54:52.301Z,14.60
2022-09-23T22:57:21.978Z,14.50
2022-09-23T22:59:48.827Z,14.50
2022-09-23T23:02:19.173Z,14.40
2022-09-23T23:04:46.833Z,14.40
2022-09-23T23:07:23.429Z,14.40
2022-09-23T23:09:50.740Z,14.30
2022-09-23T23:12:18.957Z,14.20
2022-09-23T23:14:46.160Z,14.10
2022-09-23T23:17:12.930Z,14.10
2022-09-23T23:19:39.817Z,14.00
2022-09-23T23:22:06.922Z,13.90
2022-09-23T23:24:33.609Z,13.80
2022-09-23T23:27:00.314Z,13.80
2022-09-23T23:29:27.805Z,13.70
2022-09-23T23:31:54.671Z,13.70
2022-09-23T23:34:21.536Z,13.60
2022-09-23T23:36:54.326Z,13.50
2022-09-23T23:39:23.434Z,13.40
2022-09-23T23:41:53.969Z,13.30
2022-09-23T23:44:20.960Z,13.30
2022-09-23T23:46:49.148Z,13.20
2022-09-23T23:49:16.038Z,13.10
2022-09-23T23:51:42.774Z,13.10
2022-09-23T23:54:10.647Z,13.10
2022-09-23T23:56:37.415Z,13.00
2022-09-23T23:59:04.143Z,12.90
